Nápoli / Capodichino International Airport LIRN

Flugplatz Daten

Name: Nápoli / Capodichino International Airport

Ident: LIRN

Lat: 40,88600159

Long: 14,29080009

Platzhöhe: 294 ft

IataCode: NAP

City: Nápoli

Homepage: http://www.portal.gesac.it/

Metar

2021/12/03 23:20
LIRN 032320Z 05007KT CAVOK 09/03 Q1010 NOSIG

Taf

2021/12/03 18:00
TAF LIRN 031700Z 0318/0418 04010KT 9999 SCT030
Gewünschte Webcam nicht vorhanden? Dann fügen Sie eine hinzu. Sie wird dann so schnell wie möglich freigeschaltet
Url: Title: